createdAt,value
2023-04-09T00:02:00.690Z,22.48
2023-04-09T00:04:27.293Z,25.83
2023-04-09T00:06:53.855Z,25.77
2023-04-09T00:09:20.905Z,24.15
2023-04-09T00:11:47.438Z,25.37
2023-04-09T00:14:14.218Z,24.60
2023-04-09T00:16:40.837Z,25.75
2023-04-09T00:19:07.685Z,23.58
2023-04-09T00:21:34.249Z,25.00
2023-04-09T00:24:01.147Z,21.20
2023-04-09T00:26:27.783Z,22.35
2023-04-09T00:28:55.185Z,25.08
2023-04-09T00:31:21.776Z,23.42
2023-04-09T00:33:48.521Z,25.30
2023-04-09T00:36:15.497Z,23.87
2023-04-09T00:38:42.142Z,24.55
2023-04-09T00:41:08.744Z,26.98
2023-04-09T00:43:35.354Z,24.63
2023-04-09T00:46:02.024Z,24.13
2023-04-09T00:48:28.742Z,23.50
2023-04-09T00:50:55.374Z,25.00
2023-04-09T00:53:22.043Z,24.38
2023-04-09T00:55:48.912Z,22.92
2023-04-09T00:58:15.718Z,23.02
2023-04-09T01:00:42.366Z,20.80
2023-04-09T01:03:08.991Z,23.58
2023-04-09T01:05:50.165Z,21.33
2023-04-09T01:08:35.318Z,20.63
2023-04-09T01:11:36.506Z,19.95
2023-04-09T01:14:25.265Z,25.07
2023-04-09T01:16:58.774Z,22.42
2023-04-09T01:19:43.802Z,21.77
2023-04-09T01:22:31.127Z,21.83
2023-04-09T01:25:09.582Z,22.33
2023-04-09T01:28:13.080Z,24.13
2023-04-09T01:30:43.469Z,21.55
2023-04-09T01:33:12.039Z,21.13
2023-04-09T01:35:39.160Z,22.55
2023-04-09T01:38:06.245Z,24.70
2023-04-09T01:40:33.032Z,23.80
2023-04-09T01:43:01.298Z,22.50
2023-04-09T01:45:28.180Z,25.00
2023-04-09T01:47:56.270Z,23.20
2023-04-09T01:50:23.255Z,24.23
2023-04-09T01:52:49.989Z,23.97
2023-04-09T01:55:16.594Z,27.15
2023-04-09T01:57:43.808Z,25.17
2023-04-09T02:00:11.270Z,25.95
2023-04-09T02:03:14.020Z,26.45
2023-04-09T02:05:49.138Z,23.73
2023-04-09T02:08:20.864Z,22.90
2023-04-09T02:10:55.275Z,24.27
2023-04-09T02:13:23.334Z,23.60
2023-04-09T02:15:51.060Z,24.50
2023-04-09T02:18:29.250Z,23.30
2023-04-09T02:20:57.100Z,19.55
2023-04-09T02:23:24.113Z,22.70
2023-04-09T02:25:52.532Z,25.63
2023-04-09T02:28:19.470Z,22.90
2023-04-09T02:30:46.081Z,22.90
2023-04-09T02:33:12.806Z,21.23
2023-04-09T02:35:39.376Z,20.67
2023-04-09T02:38:06.025Z,24.50
2023-04-09T02:40:32.552Z,23.60
2023-04-09T02:42:59.394Z,22.43
2023-04-09T02:45:26.145Z,23.50
2023-04-09T02:47:53.114Z,22.30
2023-04-09T02:50:20.178Z,20.85
2023-04-09T02:52:50.253Z,22.25
2023-04-09T02:55:18.196Z,25.90
2023-04-09T02:57:44.812Z,22.05
2023-04-09T03:00:12.029Z,25.77
2023-04-09T03:02:38.760Z,25.60
2023-04-09T03:05:06.195Z,27.08
2023-04-09T03:07:32.933Z,27.77
2023-04-09T03:09:59.526Z,28.65
2023-04-09T03:12:26.125Z,29.23
2023-04-09T03:14:55.769Z,30.08
2023-04-09T03:17:25.693Z,28.08
2023-04-09T03:19:52.710Z,26.57
2023-04-09T03:22:20.337Z,30.15
2023-04-09T03:24:51.493Z,30.65
2023-04-09T03:27:18.403Z,29.17
2023-04-09T03:29:48.225Z,28.42
2023-04-09T03:32:16.825Z,25.80
2023-04-09T03:34:45.413Z,24.60
2023-04-09T03:37:12.374Z,28.90
2023-04-09T03:39:39.000Z,29.50
2023-04-09T03:42:05.711Z,30.10
2023-04-09T03:44:41.813Z,28.70
2023-04-09T03:47:11.918Z,27.40
2023-04-09T03:49:39.144Z,26.42
2023-04-09T03:52:20.260Z,30.65
2023-04-09T03:54:53.886Z,29.90
2023-04-09T03:57:23.414Z,30.53
2023-04-09T03:59:52.736Z,30.88
2023-04-09T04:02:21.529Z,31.13
2023-04-09T04:04:58.068Z,28.73
2023-04-09T04:07:28.930Z,31.30
2023-04-09T04:10:00.521Z,27.37
2023-04-09T04:12:31.725Z,29.85
2023-04-09T04:15:04.381Z,29.50
2023-04-09T04:17:39.966Z,32.25
2023-04-09T04:20:13.994Z,27.83
2023-04-09T04:22:53.101Z,29.57
2023-04-09T04:25:21.081Z,30.95
2023-04-09T04:27:48.264Z,28.15
2023-04-09T04:30:17.447Z,34.92
2023-04-09T04:32:58.934Z,31.77
2023-04-09T04:35:27.833Z,30.53
2023-04-09T04:37:57.757Z,33.38
2023-04-09T04:40:26.824Z,29.33
2023-04-09T04:42:58.575Z,27.73
2023-04-09T04:45:25.462Z,26.80
2023-04-09T04:47:57.186Z,30.50
2023-04-09T04:50:23.741Z,25.25
2023-04-09T04:52:58.107Z,27.08
2023-04-09T04:55:28.215Z,25.88
2023-04-09T04:57:55.158Z,27.02
2023-04-09T05:00:25.432Z,31.70
2023-04-09T05:02:52.265Z,27.27
2023-04-09T05:05:38.121Z,24.75
2023-04-09T05:08:04.959Z,27.98
2023-04-09T05:10:31.602Z,27.08
2023-04-09T05:12:59.438Z,29.00
2023-04-09T05:15:38.325Z,29.80
2023-04-09T05:18:05.498Z,27.20
2023-04-09T05:20:32.413Z,32.33
2023-04-09T05:23:12.483Z,26.67
2023-04-09T05:25:41.986Z,34.30
2023-04-09T05:28:16.824Z,32.35
2023-04-09T05:30:47.415Z,33.88
2023-04-09T05:33:14.972Z,27.95
2023-04-09T05:35:41.552Z,29.70
2023-04-09T05:38:08.152Z,25.83
2023-04-09T05:40:35.477Z,29.52
2023-04-09T05:43:04.830Z,31.67
2023-04-09T05:45:43.362Z,30.48
2023-04-09T05:48:10.205Z,27.55
2023-04-09T05:50:51.079Z,28.83
2023-04-09T05:53:20.898Z,28.10
2023-04-09T05:55:49.225Z,29.70
2023-04-09T05:58:18.764Z,28.52
2023-04-09T06:00:47.284Z,31.48
2023-04-09T06:03:13.930Z,31.00
2023-04-09T06:05:40.512Z,32.15
2023-04-09T06:08:07.357Z,30.48
2023-04-09T06:10:34.280Z,30.77
2023-04-09T06:13:01.555Z,28.10
2023-04-09T06:15:28.261Z,28.60
2023-04-09T06:17:55.659Z,28.70
2023-04-09T06:20:23.404Z,25.95
2023-04-09T06:22:49.912Z,28.95
2023-04-09T06:25:16.481Z,26.88
2023-04-09T06:27:42.979Z,29.03
2023-04-09T06:30:10.175Z,27.55
2023-04-09T06:32:46.962Z,29.38
2023-04-09T06:35:17.891Z,25.30
2023-04-09T06:37:44.418Z,30.48
2023-04-09T06:40:11.668Z,28.53
2023-04-09T06:42:38.233Z,25.25
2023-04-09T06:45:17.940Z,29.50
2023-04-09T06:47:44.578Z,31.73
2023-04-09T06:50:11.140Z,26.67
2023-04-09T06:52:37.669Z,27.50
2023-04-09T06:55:04.528Z,29.10
2023-04-09T06:57:31.155Z,29.67
2023-04-09T06:59:57.724Z,27.70
2023-04-09T07:02:24.522Z,27.60
2023-04-09T07:04:51.377Z,28.70
2023-04-09T07:07:18.525Z,25.20
2023-04-09T07:09:45.334Z,26.48
2023-04-09T07:12:11.875Z,29.35
2023-04-09T07:14:38.385Z,30.88
2023-04-09T07:17:04.959Z,27.43
2023-04-09T07:19:31.588Z,26.50
2023-04-09T07:21:58.148Z,26.70
2023-04-09T07:24:24.720Z,30.75
2023-04-09T07:26:52.565Z,25.70
2023-04-09T07:29:20.670Z,27.50
2023-04-09T07:31:47.699Z,28.20
2023-04-09T07:34:14.355Z,30.40
2023-04-09T07:36:42.941Z,27.98
2023-04-09T07:39:09.576Z,30.05
2023-04-09T07:41:36.623Z,27.60
2023-04-09T07:44:03.649Z,29.13
2023-04-09T07:46:30.192Z,24.25
2023-04-09T07:48:56.830Z,27.50
2023-04-09T07:51:23.413Z,32.33
2023-04-09T07:53:50.150Z,31.63
2023-04-09T07:56:16.700Z,29.45
2023-04-09T07:58:43.475Z,29.70
2023-04-09T08:01:10.185Z,30.63
2023-04-09T08:03:37.220Z,29.48
2023-04-09T08:06:04.086Z,29.30
2023-04-09T08:08:30.984Z,29.25
2023-04-09T08:10:57.488Z,33.92
2023-04-09T08:13:25.348Z,31.90
2023-04-09T08:15:52.332Z,33.65
2023-04-09T08:18:18.937Z,30.83
2023-04-09T08:20:45.658Z,31.45
2023-04-09T08:23:12.605Z,32.97
2023-04-09T08:25:39.198Z,33.90
2023-04-09T08:28:06.435Z,33.42
2023-04-09T08:30:34.174Z,32.47
2023-04-09T08:33:01.678Z,32.60
2023-04-09T08:35:30.268Z,31.60
2023-04-09T08:37:57.548Z,31.75
2023-04-09T08:40:24.454Z,31.33
2023-04-09T08:42:56.735Z,31.87
2023-04-09T08:45:24.011Z,31.27
2023-04-09T08:47:51.714Z,29.40
2023-04-09T08:50:18.532Z,34.28
2023-04-09T08:52:48.026Z,33.28
2023-04-09T08:55:14.677Z,34.33
2023-04-09T08:57:41.490Z,32.13
2023-04-09T09:00:08.962Z,29.52
2023-04-09T09:02:35.789Z,30.08
2023-04-09T09:05:02.545Z,32.67
2023-04-09T09:07:29.746Z,34.27
2023-04-09T09:09:58.665Z,30.05
2023-04-09T09:12:39.322Z,33.25
2023-04-09T09:15:32.739Z,28.60
2023-04-09T09:18:00.703Z,30.40
2023-04-09T09:20:27.850Z,31.03
2023-04-09T09:22:56.712Z,30.00
2023-04-09T09:25:25.598Z,32.35
2023-04-09T09:27:53.111Z,34.97
2023-04-09T09:30:27.164Z,30.77
2023-04-09T09:32:55.271Z,32.43
2023-04-09T09:35:22.344Z,34.17
2023-04-09T09:38:01.252Z,33.90
2023-04-09T09:40:28.809Z,31.58
2023-04-09T09:42:58.686Z,33.30
2023-04-09T09:45:26.120Z,32.03
2023-04-09T09:47:54.275Z,33.78
2023-04-09T09:50:25.114Z,34.80
2023-04-09T09:52:57.931Z,36.53
2023-04-09T09:55:27.625Z,35.88
2023-04-09T09:57:56.396Z,35.97
2023-04-09T10:00:25.473Z,32.95
2023-04-09T10:03:01.920Z,34.67
2023-04-09T10:05:29.398Z,34.72
2023-04-09T10:08:00.245Z,31.90
2023-04-09T10:10:27.870Z,31.23
2023-04-09T10:12:54.661Z,35.33
2023-04-09T10:15:21.494Z,38.10
2023-04-09T10:17:48.219Z,35.10
2023-04-09T10:20:22.889Z,37.83
2023-04-09T10:22:51.718Z,35.97
2023-04-09T10:25:18.423Z,31.08
2023-04-09T10:27:46.234Z,33.25
2023-04-09T10:30:38.878Z,31.88
2023-04-09T10:33:16.642Z,33.90
2023-04-09T10:35:46.945Z,32.87
2023-04-09T10:38:15.197Z,30.95
2023-04-09T10:40:49.596Z,35.75
2023-04-09T10:43:19.972Z,34.25
2023-04-09T10:45:53.142Z,31.27
2023-04-09T10:48:20.651Z,31.00
2023-04-09T10:50:51.148Z,35.17
2023-04-09T10:53:25.433Z,33.40
2023-04-09T10:55:55.421Z,35.53
2023-04-09T10:58:22.073Z,30.38
2023-04-09T11:00:50.356Z,32.73
2023-04-09T11:03:28.894Z,31.85
2023-04-09T11:06:11.115Z,30.10
2023-04-09T11:08:38.655Z,30.10
2023-04-09T11:11:05.893Z,35.67
2023-04-09T11:13:32.868Z,33.10
2023-04-09T11:16:01.338Z,32.78
2023-04-09T11:18:30.026Z,33.92
2023-04-09T11:21:01.007Z,33.33
2023-04-09T11:23:28.292Z,32.65
2023-04-09T11:25:55.420Z,30.63
2023-04-09T11:28:23.545Z,30.13
2023-04-09T11:30:51.487Z,32.53
2023-04-09T11:33:19.995Z,28.50
2023-04-09T11:35:47.089Z,32.30
2023-04-09T11:38:13.861Z,27.57
2023-04-09T11:40:47.840Z,29.95
2023-04-09T11:43:18.186Z,28.13
2023-04-09T11:45:48.058Z,33.40
2023-04-09T11:48:15.935Z,32.92
2023-04-09T11:50:42.855Z,29.07
2023-04-09T11:53:29.908Z,26.05
2023-04-09T11:55:56.568Z,29.83
2023-04-09T11:58:24.582Z,28.17
2023-04-09T12:00:56.121Z,30.27
2023-04-09T12:03:31.135Z,25.47
2023-04-09T12:06:01.540Z,29.45
2023-04-09T12:08:28.365Z,27.33
2023-04-09T12:10:54.914Z,27.25
2023-04-09T12:13:21.650Z,26.10
2023-04-09T12:15:49.808Z,27.73
2023-04-09T12:18:16.563Z,24.02
2023-04-09T12:20:44.712Z,25.95
2023-04-09T12:23:12.832Z,23.88
2023-04-09T12:25:43.865Z,26.67
2023-04-09T12:28:13.739Z,26.23
2023-04-09T12:30:40.642Z,29.08
2023-04-09T12:33:09.550Z,27.60
2023-04-09T12:35:38.090Z,29.33
2023-04-09T12:38:07.943Z,22.45
2023-04-09T12:40:37.621Z,24.27
2023-04-09T12:43:04.472Z,25.80
2023-04-09T12:45:31.781Z,29.63
2023-04-09T12:47:58.433Z,31.00
2023-04-09T12:50:25.374Z,30.38
2023-04-09T12:52:51.894Z,29.53
2023-04-09T12:55:18.516Z,31.50
2023-04-09T12:57:46.987Z,28.80
2023-04-09T13:00:14.313Z,28.98
2023-04-09T13:02:41.596Z,30.75
2023-04-09T13:05:08.687Z,27.10
2023-04-09T13:07:35.321Z,28.23
2023-04-09T13:10:02.038Z,27.42
2023-04-09T13:12:28.733Z,27.25
2023-04-09T13:14:55.540Z,28.70
2023-04-09T13:17:22.581Z,26.93
2023-04-09T13:19:50.543Z,28.67
2023-04-09T13:22:18.331Z,26.02
2023-04-09T13:24:44.898Z,29.45
2023-04-09T13:27:11.604Z,28.65
2023-04-09T13:29:38.559Z,29.27
2023-04-09T13:32:10.534Z,33.20
2023-04-09T13:34:38.564Z,29.70
2023-04-09T13:37:05.296Z,30.10
2023-04-09T13:39:32.206Z,31.85
2023-04-09T13:41:59.675Z,28.37
2023-04-09T13:44:26.788Z,28.80
2023-04-09T13:46:53.578Z,28.38
2023-04-09T13:49:21.038Z,35.10
2023-04-09T13:51:49.083Z,26.48
2023-04-09T13:54:15.645Z,26.43
2023-04-09T13:56:42.257Z,29.77
2023-04-09T13:59:08.829Z,30.77
2023-04-09T14:01:35.808Z,28.80
2023-04-09T14:04:02.626Z,28.52
2023-04-09T14:06:29.268Z,27.27
2023-04-09T14:08:56.068Z,27.33
2023-04-09T14:11:22.700Z,30.17
2023-04-09T14:13:49.397Z,28.45
2023-04-09T14:16:16.024Z,28.23
2023-04-09T14:18:42.552Z,30.27
2023-04-09T14:21:10.358Z,31.35
2023-04-09T14:23:38.524Z,31.35
2023-04-09T14:26:06.150Z,28.70
2023-04-09T14:28:33.134Z,27.05
2023-04-09T14:30:59.843Z,29.23
2023-04-09T14:33:26.903Z,26.55
2023-04-09T14:35:54.828Z,30.25
2023-04-09T14:38:21.676Z,30.92
2023-04-09T14:40:48.228Z,28.17
2023-04-09T14:43:14.749Z,26.70
2023-04-09T14:45:41.648Z,29.48
2023-04-09T14:48:08.818Z,28.42
2023-04-09T14:50:36.710Z,24.95
2023-04-09T14:53:06.617Z,28.88
2023-04-09T14:55:33.234Z,24.37
2023-04-09T14:58:03.514Z,26.25
2023-04-09T15:00:31.384Z,29.50
2023-04-09T15:02:58.323Z,24.25
2023-04-09T15:05:25.083Z,24.50
2023-04-09T15:07:51.951Z,21.37
2023-04-09T15:10:18.856Z,18.33
2023-04-09T15:12:45.396Z,20.58
2023-04-09T15:15:13.978Z,25.67
2023-04-09T15:17:40.967Z,26.52
2023-04-09T15:20:07.962Z,23.30
2023-04-09T15:22:34.534Z,21.13
2023-04-09T15:25:01.288Z,22.45
2023-04-09T15:27:27.979Z,22.70
2023-04-09T15:29:54.494Z,19.38
2023-04-09T15:32:21.400Z,19.23
2023-04-09T15:34:47.948Z,20.20
2023-04-09T15:37:14.473Z,20.52
2023-04-09T15:39:41.017Z,20.10
2023-04-09T15:42:10.317Z,20.77
2023-04-09T15:44:38.971Z,20.33
2023-04-09T15:47:05.634Z,20.15
2023-04-09T15:49:34.801Z,20.42
2023-04-09T15:52:01.360Z,19.85
2023-04-09T15:54:27.884Z,19.38
2023-04-09T15:56:54.421Z,18.63
2023-04-09T15:59:21.021Z,19.00
2023-04-09T16:01:47.619Z,19.75
2023-04-09T16:04:14.494Z,18.05
2023-04-09T16:06:41.455Z,17.48
2023-04-09T16:09:08.201Z,16.50
2023-04-09T16:11:36.310Z,17.60
2023-04-09T16:14:03.785Z,22.25
2023-04-09T16:16:31.557Z,21.85
2023-04-09T16:18:58.160Z,21.75
2023-04-09T16:21:24.695Z,23.07
2023-04-09T16:23:51.614Z,20.55
2023-04-09T16:26:18.345Z,22.35
2023-04-09T16:28:44.917Z,23.63
2023-04-09T16:31:11.559Z,22.48
2023-04-09T16:33:38.633Z,19.93
2023-04-09T16:36:05.557Z,21.08
2023-04-09T16:38:32.154Z,21.67
2023-04-09T16:40:59.138Z,20.20
2023-04-09T16:43:25.932Z,17.92
2023-04-09T16:45:52.564Z,18.13
2023-04-09T16:48:19.286Z,17.83
2023-04-09T16:50:45.816Z,16.67
2023-04-09T16:53:12.339Z,22.63
2023-04-09T16:55:38.950Z,27.65
2023-04-09T16:58:05.503Z,21.87
2023-04-09T17:00:32.107Z,20.00
2023-04-09T17:02:58.765Z,17.77
2023-04-09T17:05:25.479Z,25.95
2023-04-09T17:07:53.600Z,37.38
2023-04-09T17:10:20.677Z,44.53
2023-04-09T17:12:48.112Z,29.67
2023-04-09T17:15:14.717Z,26.70
2023-04-09T17:17:41.383Z,26.02
2023-04-09T17:20:08.287Z,21.92
2023-04-09T17:22:35.379Z,21.80
2023-04-09T17:25:02.362Z,23.75
2023-04-09T17:27:28.910Z,32.40
2023-04-09T17:29:55.473Z,41.08
2023-04-09T17:32:22.027Z,37.72
2023-04-09T17:34:49.462Z,29.27
2023-04-09T17:37:16.250Z,27.70
2023-04-09T17:39:42.975Z,25.70
2023-04-09T17:42:11.800Z,23.08
2023-04-09T17:44:38.683Z,21.80
2023-04-09T17:47:07.295Z,21.30
2023-04-09T17:49:34.194Z,19.52
2023-04-09T17:52:01.267Z,21.02
2023-04-09T17:54:35.709Z,22.38
2023-04-09T17:57:04.133Z,20.60
2023-04-09T17:59:32.172Z,22.67
2023-04-09T18:01:58.997Z,40.53
2023-04-09T18:04:26.343Z,40.80
2023-04-09T18:06:54.408Z,29.42
2023-04-09T18:09:20.925Z,23.83
2023-04-09T18:11:48.891Z,23.73
2023-04-09T18:14:15.742Z,23.42
2023-04-09T18:16:42.325Z,23.52
2023-04-09T18:19:09.011Z,23.60
2023-04-09T18:21:38.671Z,23.50
2023-04-09T18:24:05.539Z,23.03
2023-04-09T18:26:33.776Z,28.42
2023-04-09T18:29:01.445Z,40.90
2023-04-09T18:31:28.409Z,42.97
2023-04-09T18:33:55.235Z,46.13
2023-04-09T18:36:21.813Z,46.30
2023-04-09T18:38:48.766Z,46.17
2023-04-09T18:41:25.993Z,30.92
2023-04-09T18:43:53.096Z,34.38
2023-04-09T18:46:19.688Z,29.55
2023-04-09T18:48:49.143Z,26.97
2023-04-09T18:51:15.777Z,26.73
2023-04-09T18:53:42.385Z,24.52
2023-04-09T18:56:09.310Z,22.73
2023-04-09T18:58:36.339Z,22.88
2023-04-09T19:01:12.424Z,21.77
2023-04-09T19:03:39.950Z,24.33
2023-04-09T19:06:11.975Z,27.58
2023-04-09T19:08:38.684Z,35.53
2023-04-09T19:11:06.462Z,71.70
2023-04-09T19:13:33.211Z,127.87
2023-04-09T19:15:59.846Z,62.15
2023-04-09T19:18:26.708Z,42.85
2023-04-09T19:20:53.350Z,60.97
2023-04-09T19:23:20.259Z,71.40
2023-04-09T19:25:51.977Z,55.57
2023-04-09T19:28:18.811Z,55.35
2023-04-09T19:30:45.349Z,47.25
2023-04-09T19:33:12.093Z,36.92
2023-04-09T19:35:40.735Z,38.13
2023-04-09T19:38:08.197Z,31.90
2023-04-09T19:40:34.970Z,31.27
2023-04-09T19:43:01.580Z,29.98
2023-04-09T19:45:28.131Z,30.13
2023-04-09T19:47:55.912Z,24.58
2023-04-09T19:50:22.863Z,27.60
2023-04-09T19:52:49.414Z,23.83
2023-04-09T19:55:15.983Z,19.65
2023-04-09T19:57:44.103Z,20.25
2023-04-09T20:00:11.407Z,20.40
2023-04-09T20:02:39.455Z,21.97
2023-04-09T20:05:06.387Z,18.60
2023-04-09T20:07:32.933Z,20.23
2023-04-09T20:09:59.779Z,21.73
2023-04-09T20:12:29.372Z,20.55
2023-04-09T20:14:57.289Z,22.63
2023-04-09T20:17:24.321Z,23.05
2023-04-09T20:19:51.241Z,22.35
2023-04-09T20:22:17.807Z,22.65
2023-04-09T20:24:44.343Z,21.70
2023-04-09T20:27:11.251Z,23.03
2023-04-09T20:29:37.812Z,21.30
2023-04-09T20:32:04.494Z,23.15
2023-04-09T20:34:31.515Z,20.17
2023-04-09T20:36:58.397Z,22.17
2023-04-09T20:39:26.871Z,21.33
2023-04-09T20:41:55.019Z,20.67
2023-04-09T20:44:21.593Z,22.10
2023-04-09T20:46:48.186Z,21.40
2023-04-09T20:49:14.730Z,23.10
2023-04-09T20:51:41.586Z,22.33
2023-04-09T20:54:08.126Z,23.35
2023-04-09T20:56:34.821Z,29.90
2023-04-09T20:59:01.460Z,34.85
2023-04-09T21:01:28.580Z,34.13
2023-04-09T21:03:55.805Z,30.67
2023-04-09T21:06:22.460Z,32.75
2023-04-09T21:08:49.061Z,31.60
2023-04-09T21:11:15.727Z,28.83
2023-04-09T21:13:54.085Z,25.83
2023-04-09T21:16:22.180Z,22.07
2023-04-09T21:18:49.011Z,18.88
2023-04-09T21:21:16.020Z,19.60
2023-04-09T21:23:42.623Z,20.63
2023-04-09T21:26:10.072Z,20.35
2023-04-09T21:28:36.722Z,19.17
2023-04-09T21:31:03.643Z,22.48
2023-04-09T21:33:30.613Z,19.98
2023-04-09T21:35:57.258Z,22.55
2023-04-09T21:38:23.894Z,21.63
2023-04-09T21:40:50.656Z,20.87
2023-04-09T21:43:17.179Z,19.67
2023-04-09T21:45:43.761Z,19.52
2023-04-09T21:48:10.404Z,20.80
2023-04-09T21:50:37.156Z,17.73
2023-04-09T21:53:03.725Z,16.70
2023-04-09T21:55:30.361Z,20.80
2023-04-09T21:57:57.058Z,20.10
2023-04-09T22:00:23.570Z,19.20
2023-04-09T22:02:50.813Z,19.65
2023-04-09T22:05:17.506Z,19.93
2023-04-09T22:07:44.588Z,21.80
2023-04-09T22:10:11.330Z,19.50
2023-04-09T22:12:37.961Z,18.05
2023-04-09T22:15:05.871Z,17.88
2023-04-09T22:17:32.615Z,18.23
2023-04-09T22:19:59.311Z,18.02
2023-04-09T22:22:25.858Z,18.77
2023-04-09T22:24:52.399Z,19.02
2023-04-09T22:27:18.953Z,21.40
2023-04-09T22:29:45.546Z,24.13
2023-04-09T22:32:12.753Z,21.80
2023-04-09T22:34:39.351Z,20.65
2023-04-09T22:37:06.184Z,20.10
2023-04-09T22:39:32.777Z,18.13
2023-04-09T22:41:59.341Z,20.83
2023-04-09T22:44:25.891Z,20.88
2023-04-09T22:46:52.647Z,19.00
2023-04-09T22:49:19.421Z,18.33
2023-04-09T22:51:46.352Z,19.10
2023-04-09T22:54:12.875Z,18.47
2023-04-09T22:56:39.690Z,19.45
2023-04-09T22:59:06.297Z,20.85
2023-04-09T23:01:32.925Z,19.33
2023-04-09T23:03:59.498Z,19.38
2023-04-09T23:06:26.078Z,19.27
2023-04-09T23:08:52.980Z,19.02
2023-04-09T23:11:19.821Z,19.98
2023-04-09T23:13:46.375Z,19.58
2023-04-09T23:16:13.560Z,20.25
2023-04-09T23:18:40.675Z,20.37
2023-04-09T23:21:10.628Z,19.05
2023-04-09T23:23:38.244Z,19.92
2023-04-09T23:26:05.829Z,19.27
2023-04-09T23:28:32.433Z,20.60
2023-04-09T23:30:58.969Z,21.90
2023-04-09T23:33:25.522Z,19.33
2023-04-09T23:35:52.147Z,21.58
2023-04-09T23:38:18.786Z,19.08
2023-04-09T23:40:47.275Z,22.15
2023-04-09T23:43:14.036Z,24.70
2023-04-09T23:45:40.593Z,20.88
2023-04-09T23:48:08.848Z,25.13
2023-04-09T23:50:39.216Z,20.88
2023-04-09T23:53:06.579Z,21.48
2023-04-09T23:55:34.047Z,20.90
2023-04-09T23:58:00.668Z,20.10
